sensor_id;sensor_type;location;lat;lon;timestamp;P1;durP1;ratioP1;P2;durP2;ratioP2
54143;SDS011;40050;47.324;18.792;2023-08-06T00:01:08;11.00;;;7.62;;
54143;SDS011;40050;47.324;18.792;2023-08-06T00:03:09;11.46;;;7.15;;
54143;SDS011;40050;47.324;18.792;2023-08-06T00:05:10;10.32;;;7.43;;
54143;SDS011;40050;47.324;18.792;2023-08-06T00:07:11;12.00;;;7.24;;
54143;SDS011;40050;47.324;18.792;2023-08-06T00:09:12;10.34;;;7.41;;
54143;SDS011;40050;47.324;18.792;2023-08-06T00:11:12;10.82;;;7.59;;
54143;SDS011;40050;47.324;18.792;2023-08-06T00:13:14;10.55;;;7.40;;
54143;SDS011;40050;47.324;18.792;2023-08-06T00:15:15;10.73;;;7.30;;
54143;SDS011;40050;47.324;18.792;2023-08-06T00:17:16;9.00;;;7.13;;
54143;SDS011;40050;47.324;18.792;2023-08-06T00:19:17;10.37;;;7.80;;
54143;SDS011;40050;47.324;18.792;2023-08-06T00:21:18;10.05;;;7.52;;
54143;SDS011;40050;47.324;18.792;2023-08-06T00:23:19;10.49;;;7.72;;
54143;SDS011;40050;47.324;18.792;2023-08-06T00:25:19;12.06;;;8.21;;
54143;SDS011;40050;47.324;18.792;2023-08-06T00:27:20;10.84;;;7.53;;
54143;SDS011;40050;47.324;18.792;2023-08-06T00:29:21;10.76;;;7.44;;
54143;SDS011;40050;47.324;18.792;2023-08-06T00:31:26;10.20;;;7.42;;
54143;SDS011;40050;47.324;18.792;2023-08-06T00:33:27;10.27;;;7.61;;
54143;SDS011;40050;47.324;18.792;2023-08-06T00:35:27;11.19;;;7.89;;
54143;SDS011;40050;47.324;18.792;2023-08-06T00:37:28;11.94;;;8.17;;
54143;SDS011;40050;47.324;18.792;2023-08-06T00:39:29;11.34;;;7.50;;
54143;SDS011;40050;47.324;18.792;2023-08-06T00:41:30;11.76;;;7.69;;
54143;SDS011;40050;47.324;18.792;2023-08-06T00:43:31;10.47;;;7.49;;
54143;SDS011;40050;47.324;18.792;2023-08-06T00:45:33;11.75;;;7.40;;
54143;SDS011;40050;47.324;18.792;2023-08-06T00:47:34;11.84;;;7.50;;
54143;SDS011;40050;47.324;18.792;2023-08-06T00:49:36;11.09;;;7.22;;
54143;SDS011;40050;47.324;18.792;2023-08-06T00:51:36;10.27;;;7.32;;
54143;SDS011;40050;47.324;18.792;2023-08-06T00:53:38;10.91;;;7.34;;
54143;SDS011;40050;47.324;18.792;2023-08-06T00:55:39;8.19;;;6.96;;
54143;SDS011;40050;47.324;18.792;2023-08-06T00:57:40;14.80;;;7.71;;
54143;SDS011;40050;47.324;18.792;2023-08-06T00:59:41;10.37;;;7.42;;
54143;SDS011;40050;47.324;18.792;2023-08-06T01:01:43;9.20;;;7.14;;
54143;SDS011;40050;47.324;18.792;2023-08-06T01:03:43;10.17;;;7.63;;
54143;SDS011;40050;47.324;18.792;2023-08-06T01:05:44;9.77;;;7.83;;
54143;SDS011;40050;47.324;18.792;2023-08-06T01:12:34;12.60;;;8.19;;
54143;SDS011;40050;47.324;18.792;2023-08-06T01:14:33;12.77;;;7.88;;
54143;SDS011;40050;47.324;18.792;2023-08-06T01:16:32;13.87;;;8.33;;
54143;SDS011;40050;47.324;18.792;2023-08-06T01:18:34;9.09;;;7.01;;
54143;SDS011;40050;47.324;18.792;2023-08-06T01:20:35;10.31;;;7.78;;
54143;SDS011;40050;47.324;18.792;2023-08-06T01:22:36;9.88;;;6.92;;
54143;SDS011;40050;47.324;18.792;2023-08-06T01:24:37;11.41;;;7.59;;
54143;SDS011;40050;47.324;18.792;2023-08-06T01:27:09;11.94;;;7.69;;
54143;SDS011;40050;47.324;18.792;2023-08-06T01:29:12;10.91;;;7.40;;
54143;SDS011;40050;47.324;18.792;2023-08-06T01:31:01;11.33;;;7.31;;
54143;SDS011;40050;47.324;18.792;2023-08-06T01:33:04;10.07;;;7.41;;
54143;SDS011;40050;47.324;18.792;2023-08-06T01:35:05;9.05;;;6.93;;
54143;SDS011;40050;47.324;18.792;2023-08-06T01:37:06;9.08;;;7.03;;
54143;SDS011;40050;47.324;18.792;2023-08-06T01:39:07;9.85;;;6.37;;
54143;SDS011;40050;47.324;18.792;2023-08-06T01:41:08;6.83;;;5.43;;
54143;SDS011;40050;47.324;18.792;2023-08-06T01:43:09;8.39;;;5.16;;
54143;SDS011;40050;47.324;18.792;2023-08-06T01:45:10;7.45;;;5.35;;
54143;SDS011;40050;47.324;18.792;2023-08-06T01:47:11;7.02;;;4.77;;
54143;SDS011;40050;47.324;18.792;2023-08-06T01:49:12;9.34;;;5.25;;
54143;SDS011;40050;47.324;18.792;2023-08-06T01:51:13;8.05;;;5.06;;
54143;SDS011;40050;47.324;18.792;2023-08-06T01:53:14;6.77;;;4.97;;
54143;SDS011;40050;47.324;18.792;2023-08-06T01:55:15;7.83;;;4.59;;
54143;SDS011;40050;47.324;18.792;2023-08-06T01:57:16;9.00;;;4.99;;
54143;SDS011;40050;47.324;18.792;2023-08-06T01:59:17;8.36;;;5.17;;
54143;SDS011;40050;47.324;18.792;2023-08-06T02:01:17;6.29;;;4.98;;
54143;SDS011;40050;47.324;18.792;2023-08-06T02:03:18;7.83;;;4.69;;
54143;SDS011;40050;47.324;18.792;2023-08-06T02:05:19;5.15;;;4.21;;
54143;SDS011;40050;47.324;18.792;2023-08-06T02:07:20;8.51;;;4.69;;
54143;SDS011;40050;47.324;18.792;2023-08-06T02:09:21;8.26;;;4.69;;
54143;SDS011;40050;47.324;18.792;2023-08-06T02:11:22;5.77;;;4.21;;
54143;SDS011;40050;47.324;18.792;2023-08-06T02:13:23;5.43;;;4.02;;
54143;SDS011;40050;47.324;18.792;2023-08-06T02:15:24;6.98;;;4.12;;
54143;SDS011;40050;47.324;18.792;2023-08-06T02:17:25;5.95;;;4.02;;
54143;SDS011;40050;47.324;18.792;2023-08-06T02:19:26;5.26;;;4.12;;
54143;SDS011;40050;47.324;18.792;2023-08-06T02:21:27;5.00;;;3.73;;
54143;SDS011;40050;47.324;18.792;2023-08-06T02:23:28;5.00;;;4.21;;
54143;SDS011;40050;47.324;18.792;2023-08-06T02:25:29;6.88;;;4.40;;
54143;SDS011;40050;47.324;18.792;2023-08-06T02:27:30;5.32;;;4.11;;
54143;SDS011;40050;47.324;18.792;2023-08-06T02:29:31;6.63;;;3.83;;
54143;SDS011;40050;47.324;18.792;2023-08-06T02:31:32;5.86;;;4.02;;
54143;SDS011;40050;47.324;18.792;2023-08-06T02:33:33;7.67;;;4.50;;
54143;SDS011;40050;47.324;18.792;2023-08-06T02:35:34;5.62;;;3.84;;
54143;SDS011;40050;47.324;18.792;2023-08-06T02:37:35;5.11;;;3.74;;
54143;SDS011;40050;47.324;18.792;2023-08-06T02:39:36;6.32;;;3.74;;
54143;SDS011;40050;47.324;18.792;2023-08-06T02:41:37;4.86;;;3.65;;
54143;SDS011;40050;47.324;18.792;2023-08-06T02:43:37;6.93;;;4.32;;
54143;SDS011;40050;47.324;18.792;2023-08-06T02:45:39;4.76;;;3.93;;
54143;SDS011;40050;47.324;18.792;2023-08-06T02:47:40;5.11;;;4.03;;
54143;SDS011;40050;47.324;18.792;2023-08-06T02:49:41;4.68;;;3.84;;
54143;SDS011;40050;47.324;18.792;2023-08-06T02:51:42;6.68;;;4.42;;
54143;SDS011;40050;47.324;18.792;2023-08-06T02:53:42;6.33;;;4.42;;
54143;SDS011;40050;47.324;18.792;2023-08-06T02:55:47;6.24;;;4.41;;
54143;SDS011;40050;47.324;18.792;2023-08-06T02:57:44;7.72;;;4.90;;
54143;SDS011;40050;47.324;18.792;2023-08-06T02:59:45;5.75;;;4.42;;
54143;SDS011;40050;47.324;18.792;2023-08-06T03:01:46;7.31;;;4.62;;
54143;SDS011;40050;47.324;18.792;2023-08-06T03:03:47;6.53;;;4.52;;
54143;SDS011;40050;47.324;18.792;2023-08-06T03:05:52;6.89;;;5.10;;
54143;SDS011;40050;47.324;18.792;2023-08-06T03:07:49;7.21;;;4.90;;
54143;SDS011;40050;47.324;18.792;2023-08-06T03:09:50;7.72;;;5.28;;
54143;SDS011;40050;47.324;18.792;2023-08-06T03:11:51;8.59;;;5.57;;
54143;SDS011;40050;47.324;18.792;2023-08-06T03:13:52;8.09;;;4.62;;
54143;SDS011;40050;47.324;18.792;2023-08-06T03:15:53;8.50;;;4.61;;
54143;SDS011;40050;47.324;18.792;2023-08-06T03:17:55;6.34;;;4.03;;
54143;SDS011;40050;47.324;18.792;2023-08-06T03:19:54;5.63;;;3.55;;
54143;SDS011;40050;47.324;18.792;2023-08-06T03:21:55;6.49;;;3.74;;
54143;SDS011;40050;47.324;18.792;2023-08-06T03:23:56;4.40;;;3.26;;
54143;SDS011;40050;47.324;18.792;2023-08-06T03:26:01;4.31;;;2.87;;
54143;SDS011;40050;47.324;18.792;2023-08-06T03:27:58;4.56;;;2.49;;
54143;SDS011;40050;47.324;18.792;2023-08-06T03:29:59;3.11;;;2.11;;
54143;SDS011;40050;47.324;18.792;2023-08-06T03:32:00;3.36;;;2.20;;
54143;SDS011;40050;47.324;18.792;2023-08-06T03:34:01;2.84;;;2.11;;
54143;SDS011;40050;47.324;18.792;2023-08-06T03:36:02;2.50;;;2.20;;
54143;SDS011;40050;47.324;18.792;2023-08-06T03:38:03;2.51;;;2.21;;
54143;SDS011;40050;47.324;18.792;2023-08-06T03:40:04;4.24;;;2.49;;
54143;SDS011;40050;47.324;18.792;2023-08-06T03:42:05;3.11;;;2.49;;
54143;SDS011;40050;47.324;18.792;2023-08-06T03:44:05;5.27;;;2.88;;
54143;SDS011;40050;47.324;18.792;2023-08-06T03:46:06;4.82;;;3.06;;
54143;SDS011;40050;47.324;18.792;2023-08-06T03:48:08;5.70;;;3.45;;
54143;SDS011;40050;47.324;18.792;2023-08-06T03:50:08;4.48;;;3.35;;
54143;SDS011;40050;47.324;18.792;2023-08-06T03:52:09;5.66;;;3.15;;
54143;SDS011;40050;47.324;18.792;2023-08-06T03:54:10;4.20;;;3.25;;
54143;SDS011;40050;47.324;18.792;2023-08-06T03:56:11;5.51;;;3.25;;
54143;SDS011;40050;47.324;18.792;2023-08-06T03:58:12;4.89;;;3.63;;
54143;SDS011;40050;47.324;18.792;2023-08-06T04:00:13;5.46;;;3.53;;
54143;SDS011;40050;47.324;18.792;2023-08-06T04:02:14;4.78;;;3.24;;
54143;SDS011;40050;47.324;18.792;2023-08-06T04:04:15;4.11;;;3.15;;
54143;SDS011;40050;47.324;18.792;2023-08-06T04:06:15;4.27;;;3.15;;
54143;SDS011;40050;47.324;18.792;2023-08-06T04:08:16;5.21;;;3.05;;
54143;SDS011;40050;47.324;18.792;2023-08-06T04:10:28;5.63;;;3.14;;
54143;SDS011;40050;47.324;18.792;2023-08-06T04:12:29;4.18;;;3.24;;
54143;SDS011;40050;47.324;18.792;2023-08-06T04:14:30;4.34;;;3.33;;
54143;SDS011;40050;47.324;18.792;2023-08-06T04:16:34;4.77;;;3.05;;
54143;SDS011;40050;47.324;18.792;2023-08-06T04:18:35;3.83;;;2.86;;
54143;SDS011;40050;47.324;18.792;2023-08-06T04:20:43;3.66;;;2.76;;
54143;SDS011;40050;47.324;18.792;2023-08-06T04:22:37;3.66;;;2.76;;
54143;SDS011;40050;47.324;18.792;2023-08-06T04:24:38;2.65;;;2.38;;
54143;SDS011;40050;47.324;18.792;2023-08-06T04:26:39;2.99;;;2.39;;
54143;SDS011;40050;47.324;18.792;2023-08-06T04:28:40;3.17;;;2.39;;
54143;SDS011;40050;47.324;18.792;2023-08-06T04:30:41;3.35;;;1.91;;
54143;SDS011;40050;47.324;18.792;2023-08-06T04:32:43;1.98;;;1.53;;
54143;SDS011;40050;47.324;18.792;2023-08-06T04:34:44;2.41;;;1.25;;
54143;SDS011;40050;47.324;18.792;2023-08-06T04:36:45;1.99;;;0.67;;
54143;SDS011;40050;47.324;18.792;2023-08-06T04:38:46;1.65;;;0.96;;
54143;SDS011;40050;47.324;18.792;2023-08-06T04:40:47;1.82;;;0.77;;
54143;SDS011;40050;47.324;18.792;2023-08-06T04:42:48;1.73;;;0.38;;
54143;SDS011;40050;47.324;18.792;2023-08-06T04:44:49;0.52;;;0.48;;
54143;SDS011;40050;47.324;18.792;2023-08-06T04:46:49;0.35;;;0.38;;
54143;SDS011;40050;47.324;18.792;2023-08-06T04:48:50;1.05;;;0.29;;
54143;SDS011;40050;47.324;18.792;2023-08-06T04:50:51;0.70;;;0.29;;
54143;SDS011;40050;47.324;18.792;2023-08-06T04:52:52;0.52;;;0.29;;
54143;SDS011;40050;47.324;18.792;2023-08-06T04:54:56;1.74;;;0.29;;
54143;SDS011;40050;47.324;18.792;2023-08-06T04:56:54;0.17;;;0.19;;
54143;SDS011;40050;47.324;18.792;2023-08-06T04:58:55;0.26;;;0.19;;
54143;SDS011;40050;47.324;18.792;2023-08-06T05:00:56;0.18;;;0.19;;
54143;SDS011;40050;47.324;18.792;2023-08-06T05:02:59;2.37;;;0.29;;
54143;SDS011;40050;47.324;18.792;2023-08-06T05:04:58;0.26;;;0.19;;
54143;SDS011;40050;47.324;18.792;2023-08-06T05:06:59;0.53;;;0.19;;
54143;SDS011;40050;47.324;18.792;2023-08-06T05:09:00;0.70;;;0.10;;
54143;SDS011;40050;47.324;18.792;2023-08-06T05:11:01;0.26;;;0.10;;
54143;SDS011;40050;47.324;18.792;2023-08-06T05:13:02;2.12;;;0.19;;
54143;SDS011;40050;47.324;18.792;2023-08-06T05:15:03;0.79;;;0.19;;
54143;SDS011;40050;47.324;18.792;2023-08-06T05:17:04;0.44;;;0.19;;
54143;SDS011;40050;47.324;18.792;2023-08-06T05:19:04;0.18;;;0.19;;
54143;SDS011;40050;47.324;18.792;2023-08-06T05:21:09;0.26;;;0.29;;
54143;SDS011;40050;47.324;18.792;2023-08-06T05:23:10;0.44;;;0.19;;
54143;SDS011;40050;47.324;18.792;2023-08-06T05:25:13;1.05;;;0.19;;
54143;SDS011;40050;47.324;18.792;2023-08-06T05:27:12;0.17;;;0.19;;
54143;SDS011;40050;47.324;18.792;2023-08-06T05:29:13;0.09;;;0.10;;
54143;SDS011;40050;47.324;18.792;2023-08-06T05:31:13;0.09;;;0.10;;
54143;SDS011;40050;47.324;18.792;2023-08-06T05:33:14;0.53;;;0.19;;
54143;SDS011;40050;47.324;18.792;2023-08-06T05:35:15;1.33;;;0.19;;
54143;SDS011;40050;47.324;18.792;2023-08-06T05:37:16;0.44;;;0.19;;
54143;SDS011;40050;47.324;18.792;2023-08-06T05:39:17;0.18;;;0.19;;
54143;SDS011;40050;47.324;18.792;2023-08-06T05:41:18;0.62;;;0.19;;
54143;SDS011;40050;47.324;18.792;2023-08-06T05:43:19;0.18;;;0.19;;
54143;SDS011;40050;47.324;18.792;2023-08-06T05:45:20;0.27;;;0.19;;
54143;SDS011;40050;47.324;18.792;2023-08-06T05:47:20;0.53;;;0.19;;
54143;SDS011;40050;47.324;18.792;2023-08-06T05:49:21;0.27;;;0.19;;
54143;SDS011;40050;47.324;18.792;2023-08-06T05:51:23;0.18;;;0.19;;
54143;SDS011;40050;47.324;18.792;2023-08-06T05:53:24;0.27;;;0.19;;
54143;SDS011;40050;47.324;18.792;2023-08-06T05:55:24;0.97;;;0.10;;
54143;SDS011;40050;47.324;18.792;2023-08-06T05:57:25;0.09;;;0.10;;
54143;SDS011;40050;47.324;18.792;2023-08-06T05:59:26;0.18;;;0.19;;
54143;SDS011;40050;47.324;18.792;2023-08-06T06:01:27;0.35;;;0.19;;
54143;SDS011;40050;47.324;18.792;2023-08-06T06:03:28;0.18;;;0.19;;
54143;SDS011;40050;47.324;18.792;2023-08-06T06:05:29;0.27;;;0.19;;
54143;SDS011;40050;47.324;18.792;2023-08-06T06:07:30;0.27;;;0.29;;
54143;SDS011;40050;47.324;18.792;2023-08-06T06:09:31;0.27;;;0.19;;
54143;SDS011;40050;47.324;18.792;2023-08-06T06:11:32;0.53;;;0.19;;
54143;SDS011;40050;47.324;18.792;2023-08-06T06:13:33;1.60;;;0.29;;
54143;SDS011;40050;47.324;18.792;2023-08-06T06:15:34;0.18;;;0.19;;
54143;SDS011;40050;47.324;18.792;2023-08-06T06:17:35;0.18;;;0.19;;
54143;SDS011;40050;47.324;18.792;2023-08-06T06:19:36;0.45;;;0.29;;
54143;SDS011;40050;47.324;18.792;2023-08-06T06:21:36;0.18;;;0.19;;
54143;SDS011;40050;47.324;18.792;2023-08-06T06:23:37;2.59;;;0.29;;
54143;SDS011;40050;47.324;18.792;2023-08-06T06:25:42;0.27;;;0.29;;
54143;SDS011;40050;47.324;18.792;2023-08-06T06:27:39;0.27;;;0.29;;
54143;SDS011;40050;47.324;18.792;2023-08-06T06:29:40;0.27;;;0.19;;
54143;SDS011;40050;47.324;18.792;2023-08-06T06:31:41;0.27;;;0.29;;
54143;SDS011;40050;47.324;18.792;2023-08-06T06:33:42;0.18;;;0.19;;
54143;SDS011;40050;47.324;18.792;2023-08-06T06:35:43;0.27;;;0.29;;
54143;SDS011;40050;47.324;18.792;2023-08-06T06:37:44;0.27;;;0.29;;
54143;SDS011;40050;47.324;18.792;2023-08-06T06:39:45;1.16;;;0.29;;
54143;SDS011;40050;47.324;18.792;2023-08-06T06:41:46;0.27;;;0.19;;
54143;SDS011;40050;47.324;18.792;2023-08-06T06:43:47;0.80;;;0.19;;
54143;SDS011;40050;47.324;18.792;2023-08-06T06:45:52;0.18;;;0.19;;
54143;SDS011;40050;47.324;18.792;2023-08-06T06:47:48;0.27;;;0.29;;
54143;SDS011;40050;47.324;18.792;2023-08-06T06:49:49;0.18;;;0.19;;
54143;SDS011;40050;47.324;18.792;2023-08-06T06:51:50;0.27;;;0.29;;
54143;SDS011;40050;47.324;18.792;2023-08-06T06:53:51;0.27;;;0.29;;
54143;SDS011;40050;47.324;18.792;2023-08-06T06:55:55;0.27;;;0.19;;
54143;SDS011;40050;47.324;18.792;2023-08-06T06:57:53;0.63;;;0.29;;
54143;SDS011;40050;47.324;18.792;2023-08-06T06:59:54;0.27;;;0.19;;
54143;SDS011;40050;47.324;18.792;2023-08-06T07:01:55;0.54;;;0.19;;
54143;SDS011;40050;47.324;18.792;2023-08-06T07:03:56;0.63;;;0.29;;
54143;SDS011;40050;47.324;18.792;2023-08-06T07:05:57;0.18;;;0.19;;
54143;SDS011;40050;47.324;18.792;2023-08-06T07:07:57;0.81;;;0.29;;
54143;SDS011;40050;47.324;18.792;2023-08-06T07:09:58;0.18;;;0.20;;
54143;SDS011;40050;47.324;18.792;2023-08-06T07:11:59;2.16;;;0.29;;
54143;SDS011;40050;47.324;18.792;2023-08-06T07:14:00;0.54;;;0.20;;
54143;SDS011;40050;47.324;18.792;2023-08-06T07:16:01;0.45;;;0.29;;
54143;SDS011;40050;47.324;18.792;2023-08-06T07:18:02;0.45;;;0.20;;
54143;SDS011;40050;47.324;18.792;2023-08-06T07:20:03;0.27;;;0.29;;
54143;SDS011;40050;47.324;18.792;2023-08-06T07:22:04;0.18;;;0.20;;
54143;SDS011;40050;47.324;18.792;2023-08-06T07:24:05;0.36;;;0.29;;
54143;SDS011;40050;47.324;18.792;2023-08-06T07:26:06;0.36;;;0.29;;
54143;SDS011;40050;47.324;18.792;2023-08-06T07:28:06;0.27;;;0.29;;
54143;SDS011;40050;47.324;18.792;2023-08-06T07:30:07;0.81;;;0.29;;
54143;SDS011;40050;47.324;18.792;2023-08-06T07:32:08;1.00;;;0.29;;
54143;SDS011;40050;47.324;18.792;2023-08-06T07:34:09;0.55;;;0.29;;
54143;SDS011;40050;47.324;18.792;2023-08-06T07:36:11;0.27;;;0.20;;
54143;SDS011;40050;47.324;18.792;2023-08-06T07:38:11;2.72;;;0.39;;
54143;SDS011;40050;47.324;18.792;2023-08-06T07:40:12;1.00;;;0.29;;
54143;SDS011;40050;47.324;18.792;2023-08-06T07:42:13;0.64;;;0.20;;
54143;SDS011;40050;47.324;18.792;2023-08-06T07:44:14;0.27;;;0.29;;
54143;SDS011;40050;47.324;18.792;2023-08-06T07:46:15;0.73;;;0.29;;
54143;SDS011;40050;47.324;18.792;2023-08-06T07:48:16;0.27;;;0.29;;
54143;SDS011;40050;47.324;18.792;2023-08-06T07:50:17;0.27;;;0.29;;
54143;SDS011;40050;47.324;18.792;2023-08-06T07:52:18;0.27;;;0.29;;
54143;SDS011;40050;47.324;18.792;2023-08-06T07:54:18;0.27;;;0.29;;
54143;SDS011;40050;47.324;18.792;2023-08-06T07:56:23;1.09;;;0.29;;
54143;SDS011;40050;47.324;18.792;2023-08-06T07:58:24;0.73;;;0.39;;
54143;SDS011;40050;47.324;18.792;2023-08-06T08:00:25;0.91;;;0.39;;
54143;SDS011;40050;47.324;18.792;2023-08-06T08:02:26;0.27;;;0.29;;
54143;SDS011;40050;47.324;18.792;2023-08-06T08:04:27;0.37;;;0.39;;
54143;SDS011;40050;47.324;18.792;2023-08-06T08:06:28;0.36;;;0.39;;
54143;SDS011;40050;47.324;18.792;2023-08-06T08:08:29;0.73;;;0.29;;
54143;SDS011;40050;47.324;18.792;2023-08-06T08:10:30;1.00;;;0.29;;
54143;SDS011;40050;47.324;18.792;2023-08-06T08:12:30;1.00;;;0.39;;
54143;SDS011;40050;47.324;18.792;2023-08-06T08:14:31;0.36;;;0.39;;
54143;SDS011;40050;47.324;18.792;2023-08-06T08:16:32;0.55;;;0.59;;
54143;SDS011;40050;47.324;18.792;2023-08-06T08:18:33;0.55;;;0.49;;
54143;SDS011;40050;47.324;18.792;2023-08-06T08:20:35;0.55;;;0.49;;
54143;SDS011;40050;47.324;18.792;2023-08-06T08:22:36;0.82;;;0.49;;
54143;SDS011;40050;47.324;18.792;2023-08-06T08:24:37;0.55;;;0.49;;
54143;SDS011;40050;47.324;18.792;2023-08-06T08:26:37;0.46;;;0.49;;
54143;SDS011;40050;47.324;18.792;2023-08-06T08:28:39;0.37;;;0.39;;
54143;SDS011;40050;47.324;18.792;2023-08-06T08:30:42;0.55;;;0.39;;
54143;SDS011;40050;47.324;18.792;2023-08-06T08:32:41;1.37;;;0.49;;
54143;SDS011;40050;47.324;18.792;2023-08-06T08:34:42;0.73;;;0.49;;
54143;SDS011;40050;47.324;18.792;2023-08-06T08:36:43;1.01;;;0.69;;
54143;SDS011;40050;47.324;18.792;2023-08-06T08:38:43;0.55;;;0.59;;
54143;SDS011;40050;47.324;18.792;2023-08-06T08:40:45;4.77;;;0.98;;
54143;SDS011;40050;47.324;18.792;2023-08-06T08:42:46;0.64;;;0.59;;
54143;SDS011;40050;47.324;18.792;2023-08-06T08:44:47;1.01;;;0.59;;
54143;SDS011;40050;47.324;18.792;2023-08-06T08:46:51;0.64;;;0.59;;
54143;SDS011;40050;47.324;18.792;2023-08-06T08:48:53;0.83;;;0.59;;
54143;SDS011;40050;47.324;18.792;2023-08-06T08:50:53;0.46;;;0.49;;
54143;SDS011;40050;47.324;18.792;2023-08-06T08:52:54;0.73;;;0.69;;
54143;SDS011;40050;47.324;18.792;2023-08-06T08:54:56;1.75;;;0.79;;
54143;SDS011;40050;47.324;18.792;2023-08-06T08:56:57;1.75;;;0.59;;
54143;SDS011;40050;47.324;18.792;2023-08-06T08:58:58;0.74;;;0.69;;
54143;SDS011;40050;47.324;18.792;2023-08-06T09:00:59;0.83;;;0.69;;
54143;SDS011;40050;47.324;18.792;2023-08-06T09:03:02;0.64;;;0.69;;
54143;SDS011;40050;47.324;18.792;2023-08-06T09:05:03;0.83;;;0.59;;
54143;SDS011;40050;47.324;18.792;2023-08-06T09:07:05;1.11;;;0.69;;
54143;SDS011;40050;47.324;18.792;2023-08-06T09:09:09;1.29;;;0.59;;
54143;SDS011;40050;47.324;18.792;2023-08-06T09:11:10;0.74;;;0.59;;
54143;SDS011;40050;47.324;18.792;2023-08-06T09:13:12;0.83;;;0.59;;
54143;SDS011;40050;47.324;18.792;2023-08-06T09:15:13;1.29;;;0.69;;
54143;SDS011;40050;47.324;18.792;2023-08-06T09:17:14;2.03;;;0.59;;
54143;SDS011;40050;47.324;18.792;2023-08-06T09:19:15;1.02;;;0.59;;
54143;SDS011;40050;47.324;18.792;2023-08-06T09:21:16;1.02;;;0.89;;
54143;SDS011;40050;47.324;18.792;2023-08-06T09:23:17;0.83;;;0.59;;
54143;SDS011;40050;47.324;18.792;2023-08-06T09:25:22;0.74;;;0.59;;
54143;SDS011;40050;47.324;18.792;2023-08-06T09:27:19;0.74;;;0.69;;
54143;SDS011;40050;47.324;18.792;2023-08-06T09:29:20;1.68;;;0.59;;
54143;SDS011;40050;47.324;18.792;2023-08-06T09:31:21;1.40;;;0.69;;
54143;SDS011;40050;47.324;18.792;2023-08-06T09:33:22;2.15;;;0.69;;
54143;SDS011;40050;47.324;18.792;2023-08-06T09:35:30;1.22;;;0.79;;
54143;SDS011;40050;47.324;18.792;2023-08-06T09:37:35;2.25;;;0.69;;
54143;SDS011;40050;47.324;18.792;2023-08-06T09:39:29;1.03;;;0.69;;
54143;SDS011;40050;47.324;18.792;2023-08-06T09:41:30;1.78;;;0.59;;
54143;SDS011;40050;47.324;18.792;2023-08-06T09:43:38;0.75;;;0.59;;
54143;SDS011;40050;47.324;18.792;2023-08-06T09:45:37;0.65;;;0.59;;
54143;SDS011;40050;47.324;18.792;2023-08-06T09:47:38;0.47;;;0.49;;
54143;SDS011;40050;47.324;18.792;2023-08-06T09:49:42;1.12;;;0.69;;
54143;SDS011;40050;47.324;18.792;2023-08-06T09:51:40;1.03;;;0.59;;
54143;SDS011;40050;47.324;18.792;2023-08-06T09:53:40;0.47;;;0.49;;
54143;SDS011;40050;47.324;18.792;2023-08-06T09:55:42;0.56;;;0.49;;
54143;SDS011;40050;47.324;18.792;2023-08-06T09:57:44;0.84;;;0.59;;
54143;SDS011;40050;47.324;18.792;2023-08-06T09:59:45;0.47;;;0.49;;
54143;SDS011;40050;47.324;18.792;2023-08-06T10:01:47;1.51;;;0.49;;
54143;SDS011;40050;47.324;18.792;2023-08-06T10:03:48;0.57;;;0.59;;
54143;SDS011;40050;47.324;18.792;2023-08-06T10:05:49;1.04;;;0.50;;
54143;SDS011;40050;47.324;18.792;2023-08-06T10:07:50;2.93;;;0.49;;
54143;SDS011;40050;47.324;18.792;2023-08-06T10:09:51;0.75;;;0.59;;
54143;SDS011;40050;47.324;18.792;2023-08-06T10:11:53;0.66;;;0.59;;
54143;SDS011;40050;47.324;18.792;2023-08-06T10:13:59;0.85;;;0.50;;
54143;SDS011;40050;47.324;18.792;2023-08-06T10:16:00;1.04;;;0.59;;
54143;SDS011;40050;47.324;18.792;2023-08-06T10:18:02;1.51;;;0.50;;
54143;SDS011;40050;47.324;18.792;2023-08-06T10:20:07;0.66;;;0.59;;
54143;SDS011;40050;47.324;18.792;2023-08-06T10:22:07;0.47;;;0.50;;
54143;SDS011;40050;47.324;18.792;2023-08-06T10:24:07;0.76;;;0.59;;
54143;SDS011;40050;47.324;18.792;2023-08-06T10:26:12;0.66;;;0.59;;
54143;SDS011;40050;47.324;18.792;2023-08-06T10:28:24;0.66;;;0.59;;
54143;SDS011;40050;47.324;18.792;2023-08-06T10:30:29;0.85;;;0.69;;
54143;SDS011;40050;47.324;18.792;2023-08-06T10:32:48;1.70;;;0.69;;
54143;SDS011;40050;47.324;18.792;2023-08-06T10:36:34;0.76;;;0.69;;
54143;SDS011;40050;47.324;18.792;2023-08-06T10:38:48;0.95;;;0.69;;
54143;SDS011;40050;47.324;18.792;2023-08-06T10:42:53;1.98;;;0.59;;
54143;SDS011;40050;47.324;18.792;2023-08-06T10:45:16;1.23;;;0.79;;
54143;SDS011;40050;47.324;18.792;2023-08-06T10:47:03;0.85;;;0.59;;
54143;SDS011;40050;47.324;18.792;2023-08-06T10:49:05;0.66;;;0.59;;
54143;SDS011;40050;47.324;18.792;2023-08-06T10:51:09;1.41;;;0.79;;
54143;SDS011;40050;47.324;18.792;2023-08-06T10:53:06;1.04;;;0.69;;
54143;SDS011;40050;47.324;18.792;2023-08-06T10:55:07;1.32;;;0.59;;
54143;SDS011;40050;47.324;18.792;2023-08-06T10:57:11;1.70;;;0.79;;
54143;SDS011;40050;47.324;18.792;2023-08-06T10:59:14;0.85;;;0.69;;
54143;SDS011;40050;47.324;18.792;2023-08-06T11:01:14;1.22;;;0.69;;
54143;SDS011;40050;47.324;18.792;2023-08-06T11:03:15;1.60;;;0.79;;
54143;SDS011;40050;47.324;18.792;2023-08-06T11:05:16;0.94;;;0.69;;
54143;SDS011;40050;47.324;18.792;2023-08-06T11:07:22;0.75;;;0.69;;
54143;SDS011;40050;47.324;18.792;2023-08-06T11:09:24;1.51;;;0.69;;
54143;SDS011;40050;47.324;18.792;2023-08-06T11:11:25;0.75;;;0.59;;
54143;SDS011;40050;47.324;18.792;2023-08-06T11:13:31;1.03;;;0.59;;
54143;SDS011;40050;47.324;18.792;2023-08-06T11:15:33;1.79;;;0.59;;
54143;SDS011;40050;47.324;18.792;2023-08-06T11:17:34;0.85;;;0.69;;
54143;SDS011;40050;47.324;18.792;2023-08-06T11:19:35;1.89;;;0.79;;
54143;SDS011;40050;47.324;18.792;2023-08-06T11:21:36;1.23;;;0.79;;
54143;SDS011;40050;47.324;18.792;2023-08-06T11:23:37;1.42;;;0.69;;
54143;SDS011;40050;47.324;18.792;2023-08-06T11:25:43;2.75;;;0.89;;
54143;SDS011;40050;47.324;18.792;2023-08-06T11:27:42;1.33;;;0.69;;
54143;SDS011;40050;47.324;18.792;2023-08-06T11:29:46;0.94;;;0.59;;
54143;SDS011;40050;47.324;18.792;2023-08-06T11:31:50;0.95;;;0.69;;
54143;SDS011;40050;47.324;18.792;2023-08-06T11:33:54;0.76;;;0.79;;
54143;SDS011;40050;47.324;18.792;2023-08-06T11:35:54;1.14;;;0.79;;
54143;SDS011;40050;47.324;18.792;2023-08-06T11:37:54;1.23;;;0.79;;
54143;SDS011;40050;47.324;18.792;2023-08-06T11:39:55;0.95;;;0.89;;
54143;SDS011;40050;47.324;18.792;2023-08-06T11:41:56;2.48;;;0.89;;
54143;SDS011;40050;47.324;18.792;2023-08-06T11:43:57;1.62;;;0.79;;
54143;SDS011;40050;47.324;18.792;2023-08-06T11:45:58;1.33;;;0.69;;
54143;SDS011;40050;47.324;18.792;2023-08-06T11:47:59;1.62;;;0.79;;
54143;SDS011;40050;47.324;18.792;2023-08-06T11:50:09;1.14;;;0.69;;
54143;SDS011;40050;47.324;18.792;2023-08-06T11:52:12;0.67;;;0.70;;
54143;SDS011;40050;47.324;18.792;2023-08-06T11:54:12;0.76;;;0.79;;
54143;SDS011;40050;47.324;18.792;2023-08-06T11:56:13;0.95;;;0.89;;
54143;SDS011;40050;47.324;18.792;2023-08-06T11:58:16;1.05;;;0.89;;
54143;SDS011;40050;47.324;18.792;2023-08-06T12:00:16;1.53;;;0.89;;
54143;SDS011;40050;47.324;18.792;2023-08-06T12:02:17;1.43;;;0.79;;
54143;SDS011;40050;47.324;18.792;2023-08-06T12:04:18;0.95;;;0.89;;
54143;SDS011;40050;47.324;18.792;2023-08-06T12:06:19;0.96;;;0.79;;
54143;SDS011;40050;47.324;18.792;2023-08-06T12:08:29;0.96;;;0.89;;